sensor_id;sensor_type;location;lat;lon;timestamp;P1;durP1;ratioP1;P2;durP2;ratioP2
66485;SDS011;53303;47.476;8.084;2022-10-14T00:00:59;5.93;;;2.40;;
66485;SDS011;53303;47.476;8.084;2022-10-14T00:03:34;5.90;;;2.00;;
66485;SDS011;53303;47.476;8.084;2022-10-14T00:06:08;6.10;;;2.03;;
66485;SDS011;53303;47.476;8.084;2022-10-14T00:08:36;4.97;;;2.20;;
66485;SDS011;53303;47.476;8.084;2022-10-14T00:11:09;5.07;;;2.03;;
66485;SDS011;53303;47.476;8.084;2022-10-14T00:13:36;4.18;;;1.85;;
66485;SDS011;53303;47.476;8.084;2022-10-14T00:16:02;4.88;;;1.90;;
66485;SDS011;53303;47.476;8.084;2022-10-14T00:18:31;4.00;;;1.80;;
66485;SDS011;53303;47.476;8.084;2022-10-14T00:20:57;4.72;;;2.05;;
66485;SDS011;53303;47.476;8.084;2022-10-14T00:23:25;5.78;;;1.85;;
66485;SDS011;53303;47.476;8.084;2022-10-14T00:25:51;4.32;;;1.92;;
66485;SDS011;53303;47.476;8.084;2022-10-14T00:28:20;5.47;;;1.80;;
66485;SDS011;53303;47.476;8.084;2022-10-14T00:30:52;4.28;;;1.80;;
66485;SDS011;53303;47.476;8.084;2022-10-14T00:33:19;5.32;;;2.13;;
66485;SDS011;53303;47.476;8.084;2022-10-14T00:35:51;6.53;;;2.00;;
66485;SDS011;53303;47.476;8.084;2022-10-14T00:38:24;5.32;;;2.10;;
66485;SDS011;53303;47.476;8.084;2022-10-14T00:40:51;5.15;;;2.10;;
66485;SDS011;53303;47.476;8.084;2022-10-14T00:43:19;5.43;;;1.90;;
66485;SDS011;53303;47.476;8.084;2022-10-14T00:45:48;5.07;;;2.10;;
66485;SDS011;53303;47.476;8.084;2022-10-14T00:48:14;5.97;;;2.15;;
66485;SDS011;53303;47.476;8.084;2022-10-14T00:50:42;3.80;;;1.73;;
66485;SDS011;53303;47.476;8.084;2022-10-14T00:53:09;4.85;;;1.90;;
66485;SDS011;53303;47.476;8.084;2022-10-14T00:55:36;5.45;;;2.22;;
66485;SDS011;53303;47.476;8.084;2022-10-14T00:58:05;5.43;;;2.17;;
66485;SDS011;53303;47.476;8.084;2022-10-14T01:00:34;4.25;;;1.92;;
66485;SDS011;53303;47.476;8.084;2022-10-14T01:03:07;5.20;;;2.20;;
66485;SDS011;53303;47.476;8.084;2022-10-14T01:05:54;5.38;;;2.13;;
66485;SDS011;53303;47.476;8.084;2022-10-14T01:08:44;6.00;;;2.40;;
66485;SDS011;53303;47.476;8.084;2022-10-14T01:11:19;4.30;;;1.90;;
66485;SDS011;53303;47.476;8.084;2022-10-14T01:17:05;5.20;;;2.03;;
66485;SDS011;53303;47.476;8.084;2022-10-14T01:22:15;5.80;;;2.00;;
66485;SDS011;53303;47.476;8.084;2022-10-14T01:27:21;4.28;;;1.75;;
66485;SDS011;53303;47.476;8.084;2022-10-14T01:29:59;5.75;;;1.92;;
66485;SDS011;53303;47.476;8.084;2022-10-14T01:32:38;5.18;;;2.13;;
66485;SDS011;53303;47.476;8.084;2022-10-14T01:38:03;5.25;;;1.95;;
66485;SDS011;53303;47.476;8.084;2022-10-14T01:40:38;5.63;;;2.10;;
66485;SDS011;53303;47.476;8.084;2022-10-14T01:43:08;4.93;;;2.10;;
66485;SDS011;53303;47.476;8.084;2022-10-14T01:45:37;3.80;;;1.80;;
66485;SDS011;53303;47.476;8.084;2022-10-14T01:48:06;4.85;;;2.10;;
66485;SDS011;53303;47.476;8.084;2022-10-14T01:50:34;5.70;;;2.28;;
66485;SDS011;53303;47.476;8.084;2022-10-14T01:53:06;4.55;;;1.73;;
66485;SDS011;53303;47.476;8.084;2022-10-14T01:55:37;4.72;;;2.03;;
66485;SDS011;53303;47.476;8.084;2022-10-14T01:58:06;4.78;;;2.47;;
66485;SDS011;53303;47.476;8.084;2022-10-14T02:00:36;4.32;;;1.88;;
66485;SDS011;53303;47.476;8.084;2022-10-14T02:03:02;4.78;;;2.20;;
66485;SDS011;53303;47.476;8.084;2022-10-14T02:07:56;5.13;;;2.40;;
66485;SDS011;53303;47.476;8.084;2022-10-14T02:10:45;4.43;;;1.80;;
66485;SDS011;53303;47.476;8.084;2022-10-14T02:21:56;4.82;;;1.95;;
66485;SDS011;53303;47.476;8.084;2022-10-14T02:24:43;4.25;;;1.80;;
66485;SDS011;53303;47.476;8.084;2022-10-14T02:27:13;3.35;;;1.70;;
66485;SDS011;53303;47.476;8.084;2022-10-14T02:29:43;4.82;;;2.33;;
66485;SDS011;53303;47.476;8.084;2022-10-14T02:32:11;4.18;;;1.80;;
66485;SDS011;53303;47.476;8.084;2022-10-14T02:34:39;5.00;;;2.03;;
66485;SDS011;53303;47.476;8.084;2022-10-14T02:37:06;5.50;;;1.90;;
66485;SDS011;53303;47.476;8.084;2022-10-14T02:39:35;4.68;;;2.08;;
66485;SDS011;53303;47.476;8.084;2022-10-14T02:42:06;5.50;;;2.20;;
66485;SDS011;53303;47.476;8.084;2022-10-14T02:44:32;4.85;;;1.73;;
66485;SDS011;53303;47.476;8.084;2022-10-14T02:46:59;4.95;;;1.90;;
66485;SDS011;53303;47.476;8.084;2022-10-14T02:49:25;4.80;;;2.13;;
66485;SDS011;53303;47.476;8.084;2022-10-14T02:51:50;6.30;;;2.30;;
66485;SDS011;53303;47.476;8.084;2022-10-14T02:54:15;5.40;;;1.85;;
66485;SDS011;53303;47.476;8.084;2022-10-14T02:56:41;4.15;;;1.83;;
66485;SDS011;53303;47.476;8.084;2022-10-14T02:59:06;6.30;;;2.40;;
66485;SDS011;53303;47.476;8.084;2022-10-14T03:01:32;4.50;;;2.13;;
66485;SDS011;53303;47.476;8.084;2022-10-14T03:03:59;6.53;;;2.47;;
66485;SDS011;53303;47.476;8.084;2022-10-14T03:06:29;4.75;;;2.15;;
66485;SDS011;53303;47.476;8.084;2022-10-14T03:08:57;4.80;;;2.50;;
66485;SDS011;53303;47.476;8.084;2022-10-14T03:11:25;4.43;;;2.13;;
66485;SDS011;53303;47.476;8.084;2022-10-14T03:13:50;4.43;;;2.03;;
66485;SDS011;53303;47.476;8.084;2022-10-14T03:16:16;4.82;;;2.15;;
66485;SDS011;53303;47.476;8.084;2022-10-14T03:18:41;4.55;;;2.10;;
66485;SDS011;53303;47.476;8.084;2022-10-14T03:21:06;6.68;;;2.17;;
66485;SDS011;53303;47.476;8.084;2022-10-14T03:23:35;5.60;;;2.58;;
66485;SDS011;53303;47.476;8.084;2022-10-14T03:26:02;5.15;;;2.45;;
66485;SDS011;53303;47.476;8.084;2022-10-14T03:28:28;6.10;;;2.28;;
66485;SDS011;53303;47.476;8.084;2022-10-14T03:30:53;5.38;;;2.17;;
66485;SDS011;53303;47.476;8.084;2022-10-14T03:33:18;5.65;;;2.42;;
66485;SDS011;53303;47.476;8.084;2022-10-14T03:35:46;5.50;;;2.67;;
66485;SDS011;53303;47.476;8.084;2022-10-14T03:38:11;5.80;;;2.65;;
66485;SDS011;53303;47.476;8.084;2022-10-14T03:40:37;5.68;;;2.33;;
66485;SDS011;53303;47.476;8.084;2022-10-14T03:43:02;5.68;;;2.20;;
66485;SDS011;53303;47.476;8.084;2022-10-14T03:45:28;5.95;;;2.22;;
66485;SDS011;53303;47.476;8.084;2022-10-14T03:47:53;5.53;;;2.22;;
66485;SDS011;53303;47.476;8.084;2022-10-14T03:50:19;6.00;;;2.20;;
66485;SDS011;53303;47.476;8.084;2022-10-14T03:52:45;5.22;;;2.20;;
66485;SDS011;53303;47.476;8.084;2022-10-14T03:55:10;4.20;;;2.00;;
66485;SDS011;53303;47.476;8.084;2022-10-14T03:57:38;4.78;;;2.20;;
66485;SDS011;53303;47.476;8.084;2022-10-14T04:00:04;4.95;;;2.05;;
66485;SDS011;53303;47.476;8.084;2022-10-14T04:02:30;6.03;;;2.58;;
66485;SDS011;53303;47.476;8.084;2022-10-14T04:04:57;6.80;;;2.20;;
66485;SDS011;53303;47.476;8.084;2022-10-14T04:07:25;6.55;;;2.30;;
66485;SDS011;53303;47.476;8.084;2022-10-14T04:09:51;10.10;;;3.45;;
66485;SDS011;53303;47.476;8.084;2022-10-14T04:12:19;7.05;;;2.50;;
66485;SDS011;53303;47.476;8.084;2022-10-14T04:14:45;9.82;;;2.80;;
66485;SDS011;53303;47.476;8.084;2022-10-14T04:17:10;7.53;;;2.70;;
66485;SDS011;53303;47.476;8.084;2022-10-14T04:19:35;10.15;;;2.80;;
66485;SDS011;53303;47.476;8.084;2022-10-14T04:22:03;7.93;;;2.83;;
66485;SDS011;53303;47.476;8.084;2022-10-14T04:24:29;7.18;;;2.75;;
66485;SDS011;53303;47.476;8.084;2022-10-14T04:26:55;8.00;;;2.50;;
66485;SDS011;53303;47.476;8.084;2022-10-14T04:29:21;7.15;;;3.03;;
66485;SDS011;53303;47.476;8.084;2022-10-14T04:31:48;6.25;;;2.95;;
66485;SDS011;53303;47.476;8.084;2022-10-14T04:34:14;7.93;;;2.58;;
66485;SDS011;53303;47.476;8.084;2022-10-14T04:36:39;7.75;;;3.17;;
66485;SDS011;53303;47.476;8.084;2022-10-14T04:39:07;8.18;;;3.22;;
66485;SDS011;53303;47.476;8.084;2022-10-14T04:41:35;6.53;;;2.67;;
66485;SDS011;53303;47.476;8.084;2022-10-14T04:44:03;6.28;;;2.40;;
66485;SDS011;53303;47.476;8.084;2022-10-14T04:46:30;8.38;;;2.80;;
66485;SDS011;53303;47.476;8.084;2022-10-14T04:48:56;8.07;;;3.22;;
66485;SDS011;53303;47.476;8.084;2022-10-14T04:51:22;6.03;;;2.45;;
66485;SDS011;53303;47.476;8.084;2022-10-14T04:53:47;6.07;;;2.53;;
66485;SDS011;53303;47.476;8.084;2022-10-14T04:56:12;8.05;;;3.40;;
66485;SDS011;53303;47.476;8.084;2022-10-14T04:58:38;6.95;;;2.50;;
66485;SDS011;53303;47.476;8.084;2022-10-14T05:01:03;7.32;;;2.50;;
66485;SDS011;53303;47.476;8.084;2022-10-14T05:03:31;7.22;;;3.08;;
66485;SDS011;53303;47.476;8.084;2022-10-14T05:05:57;7.68;;;3.13;;
66485;SDS011;53303;47.476;8.084;2022-10-14T05:08:25;7.25;;;3.30;;
66485;SDS011;53303;47.476;8.084;2022-10-14T05:10:50;7.53;;;3.03;;
66485;SDS011;53303;47.476;8.084;2022-10-14T05:13:16;6.85;;;2.63;;
66485;SDS011;53303;47.476;8.084;2022-10-14T05:15:43;6.13;;;2.78;;
66485;SDS011;53303;47.476;8.084;2022-10-14T05:18:12;6.90;;;2.95;;
66485;SDS011;53303;47.476;8.084;2022-10-14T05:20:40;7.45;;;2.63;;
66485;SDS011;53303;47.476;8.084;2022-10-14T05:23:05;6.65;;;3.10;;
66485;SDS011;53303;47.476;8.084;2022-10-14T05:25:30;7.68;;;2.80;;
66485;SDS011;53303;47.476;8.084;2022-10-14T05:27:58;7.13;;;2.70;;
66485;SDS011;53303;47.476;8.084;2022-10-14T05:30:23;6.90;;;2.85;;
66485;SDS011;53303;47.476;8.084;2022-10-14T05:32:49;7.85;;;2.90;;
66485;SDS011;53303;47.476;8.084;2022-10-14T05:35:14;5.55;;;2.65;;
66485;SDS011;53303;47.476;8.084;2022-10-14T05:37:40;6.78;;;2.95;;
66485;SDS011;53303;47.476;8.084;2022-10-14T05:40:05;6.85;;;2.75;;
66485;SDS011;53303;47.476;8.084;2022-10-14T05:42:34;5.75;;;2.70;;
66485;SDS011;53303;47.476;8.084;2022-10-14T05:45:02;8.95;;;3.80;;
66485;SDS011;53303;47.476;8.084;2022-10-14T05:47:28;6.22;;;3.20;;
66485;SDS011;53303;47.476;8.084;2022-10-14T05:49:54;6.25;;;2.67;;
66485;SDS011;53303;47.476;8.084;2022-10-14T05:52:19;19.95;;;6.40;;
66485;SDS011;53303;47.476;8.084;2022-10-14T05:54:44;17.15;;;6.55;;
66485;SDS011;53303;47.476;8.084;2022-10-14T05:57:12;11.45;;;4.63;;
66485;SDS011;53303;47.476;8.084;2022-10-14T05:59:37;11.43;;;4.72;;
66485;SDS011;53303;47.476;8.084;2022-10-14T06:02:03;14.35;;;5.13;;
66485;SDS011;53303;47.476;8.084;2022-10-14T06:04:28;14.75;;;5.28;;
66485;SDS011;53303;47.476;8.084;2022-10-14T06:06:54;13.95;;;5.38;;
66485;SDS011;53303;47.476;8.084;2022-10-14T06:09:19;13.68;;;5.70;;
66485;SDS011;53303;47.476;8.084;2022-10-14T06:11:45;12.80;;;4.93;;
66485;SDS011;53303;47.476;8.084;2022-10-14T06:14:10;14.20;;;5.00;;
66485;SDS011;53303;47.476;8.084;2022-10-14T06:16:38;13.23;;;4.95;;
66485;SDS011;53303;47.476;8.084;2022-10-14T06:19:03;11.38;;;4.47;;
66485;SDS011;53303;47.476;8.084;2022-10-14T06:21:31;11.82;;;4.45;;
66485;SDS011;53303;47.476;8.084;2022-10-14T06:23:57;13.00;;;5.47;;
66485;SDS011;53303;47.476;8.084;2022-10-14T06:26:22;10.93;;;4.80;;
66485;SDS011;53303;47.476;8.084;2022-10-14T06:28:48;10.75;;;4.70;;
66485;SDS011;53303;47.476;8.084;2022-10-14T06:31:13;13.27;;;4.63;;
66485;SDS011;53303;47.476;8.084;2022-10-14T06:33:38;11.23;;;4.63;;
66485;SDS011;53303;47.476;8.084;2022-10-14T06:36:04;11.02;;;4.30;;
66485;SDS011;53303;47.476;8.084;2022-10-14T06:38:31;11.30;;;5.13;;
66485;SDS011;53303;47.476;8.084;2022-10-14T06:40:56;10.02;;;4.55;;
66485;SDS011;53303;47.476;8.084;2022-10-14T06:43:24;10.32;;;4.20;;
66485;SDS011;53303;47.476;8.084;2022-10-14T06:45:50;10.98;;;4.85;;
66485;SDS011;53303;47.476;8.084;2022-10-14T06:48:16;9.95;;;4.28;;
66485;SDS011;53303;47.476;8.084;2022-10-14T06:50:42;9.00;;;4.28;;
66485;SDS011;53303;47.476;8.084;2022-10-14T06:53:07;10.48;;;4.53;;
66485;SDS011;53303;47.476;8.084;2022-10-14T06:55:33;10.15;;;4.50;;
66485;SDS011;53303;47.476;8.084;2022-10-14T06:58:01;10.68;;;5.50;;
66485;SDS011;53303;47.476;8.084;2022-10-14T07:00:26;9.95;;;5.07;;
66485;SDS011;53303;47.476;8.084;2022-10-14T07:02:51;10.90;;;5.45;;
66485;SDS011;53303;47.476;8.084;2022-10-14T07:05:17;11.38;;;6.07;;
66485;SDS011;53303;47.476;8.084;2022-10-14T07:07:42;11.02;;;5.38;;
66485;SDS011;53303;47.476;8.084;2022-10-14T07:10:08;10.15;;;5.07;;
66485;SDS011;53303;47.476;8.084;2022-10-14T07:12:33;10.85;;;5.15;;
66485;SDS011;53303;47.476;8.084;2022-10-14T07:14:58;8.48;;;4.75;;
66485;SDS011;53303;47.476;8.084;2022-10-14T07:17:24;10.23;;;4.85;;
66485;SDS011;53303;47.476;8.084;2022-10-14T07:19:49;9.77;;;4.75;;
66485;SDS011;53303;47.476;8.084;2022-10-14T07:22:15;9.65;;;4.95;;
66485;SDS011;53303;47.476;8.084;2022-10-14T07:24:41;9.45;;;4.85;;
66485;SDS011;53303;47.476;8.084;2022-10-14T07:27:07;10.48;;;5.20;;
66485;SDS011;53303;47.476;8.084;2022-10-14T07:29:33;8.25;;;4.78;;
66485;SDS011;53303;47.476;8.084;2022-10-14T07:31:59;7.65;;;4.10;;
66485;SDS011;53303;47.476;8.084;2022-10-14T07:34:24;9.00;;;4.35;;
66485;SDS011;53303;47.476;8.084;2022-10-14T07:36:50;8.40;;;4.45;;
66485;SDS011;53303;47.476;8.084;2022-10-14T07:39:18;8.60;;;3.88;;
66485;SDS011;53303;47.476;8.084;2022-10-14T07:41:43;9.52;;;4.30;;
66485;SDS011;53303;47.476;8.084;2022-10-14T07:44:09;8.07;;;4.03;;
66485;SDS011;53303;47.476;8.084;2022-10-14T07:46:38;8.60;;;4.00;;
66485;SDS011;53303;47.476;8.084;2022-10-14T07:49:08;8.57;;;4.10;;
66485;SDS011;53303;47.476;8.084;2022-10-14T07:51:36;8.60;;;4.68;;
66485;SDS011;53303;47.476;8.084;2022-10-14T07:54:03;9.70;;;4.05;;
66485;SDS011;53303;47.476;8.084;2022-10-14T07:56:33;8.10;;;3.75;;
66485;SDS011;53303;47.476;8.084;2022-10-14T07:59:02;7.78;;;3.50;;
66485;SDS011;53303;47.476;8.084;2022-10-14T08:01:28;8.52;;;4.25;;
66485;SDS011;53303;47.476;8.084;2022-10-14T08:03:54;8.43;;;3.63;;
66485;SDS011;53303;47.476;8.084;2022-10-14T08:06:21;7.95;;;3.60;;
66485;SDS011;53303;47.476;8.084;2022-10-14T08:08:49;8.65;;;4.80;;
66485;SDS011;53303;47.476;8.084;2022-10-14T08:11:16;7.28;;;3.63;;
66485;SDS011;53303;47.476;8.084;2022-10-14T08:13:47;9.25;;;4.55;;
66485;SDS011;53303;47.476;8.084;2022-10-14T08:16:21;7.35;;;3.38;;
66485;SDS011;53303;47.476;8.084;2022-10-14T08:18:48;9.40;;;3.85;;
66485;SDS011;53303;47.476;8.084;2022-10-14T08:21:14;8.60;;;4.03;;
66485;SDS011;53303;47.476;8.084;2022-10-14T08:23:41;8.77;;;3.42;;
66485;SDS011;53303;47.476;8.084;2022-10-14T08:28:53;7.25;;;3.85;;
66485;SDS011;53303;47.476;8.084;2022-10-14T08:31:21;8.90;;;3.53;;
66485;SDS011;53303;47.476;8.084;2022-10-14T08:33:47;8.15;;;3.60;;
66485;SDS011;53303;47.476;8.084;2022-10-14T08:36:15;9.88;;;3.25;;
66485;SDS011;53303;47.476;8.084;2022-10-14T08:38:42;8.27;;;3.78;;
66485;SDS011;53303;47.476;8.084;2022-10-14T08:51:50;7.55;;;3.72;;
66485;SDS011;53303;47.476;8.084;2022-10-14T08:54:46;7.07;;;2.97;;
66485;SDS011;53303;47.476;8.084;2022-10-14T08:57:19;6.90;;;2.95;;
66485;SDS011;53303;47.476;8.084;2022-10-14T08:59:47;8.05;;;2.80;;
66485;SDS011;53303;47.476;8.084;2022-10-14T09:04:57;7.20;;;3.30;;
66485;SDS011;53303;47.476;8.084;2022-10-14T09:07:23;6.30;;;2.85;;
66485;SDS011;53303;47.476;8.084;2022-10-14T09:09:53;6.38;;;2.95;;
66485;SDS011;53303;47.476;8.084;2022-10-14T09:12:25;6.65;;;3.08;;
66485;SDS011;53303;47.476;8.084;2022-10-14T09:14:57;7.03;;;3.00;;
66485;SDS011;53303;47.476;8.084;2022-10-14T09:17:31;7.30;;;2.90;;
66485;SDS011;53303;47.476;8.084;2022-10-14T09:22:32;6.35;;;2.47;;
66485;SDS011;53303;47.476;8.084;2022-10-14T09:24:58;6.43;;;2.60;;
66485;SDS011;53303;47.476;8.084;2022-10-14T09:27:25;5.30;;;2.30;;
66485;SDS011;53303;47.476;8.084;2022-10-14T09:30:00;6.00;;;2.45;;
66485;SDS011;53303;47.476;8.084;2022-10-14T09:32:27;5.57;;;2.72;;
66485;SDS011;53303;47.476;8.084;2022-10-14T09:34:57;6.38;;;2.80;;
66485;SDS011;53303;47.476;8.084;2022-10-14T09:40:01;5.78;;;2.58;;
66485;SDS011;53303;47.476;8.084;2022-10-14T09:45:13;5.70;;;2.90;;
66485;SDS011;53303;47.476;8.084;2022-10-14T09:50:47;5.07;;;2.42;;
66485;SDS011;53303;47.476;8.084;2022-10-14T09:53:24;5.85;;;2.53;;
66485;SDS011;53303;47.476;8.084;2022-10-14T09:56:09;5.30;;;2.65;;
66485;SDS011;53303;47.476;8.084;2022-10-14T09:58:41;5.07;;;2.50;;
66485;SDS011;53303;47.476;8.084;2022-10-14T10:01:28;5.38;;;2.22;;
66485;SDS011;53303;47.476;8.084;2022-10-14T10:06:58;6.07;;;2.72;;
66485;SDS011;53303;47.476;8.084;2022-10-14T10:09:25;6.07;;;2.65;;
66485;SDS011;53303;47.476;8.084;2022-10-14T10:11:53;6.15;;;3.00;;
66485;SDS011;53303;47.476;8.084;2022-10-14T10:14:23;4.93;;;2.25;;
66485;SDS011;53303;47.476;8.084;2022-10-14T10:19:40;6.13;;;2.20;;
66485;SDS011;53303;47.476;8.084;2022-10-14T10:24:43;4.80;;;2.10;;
66485;SDS011;53303;47.476;8.084;2022-10-14T10:27:19;5.57;;;2.40;;
66485;SDS011;53303;47.476;8.084;2022-10-14T10:29:51;5.20;;;2.30;;
66485;SDS011;53303;47.476;8.084;2022-10-14T10:40:20;5.03;;;2.40;;
66485;SDS011;53303;47.476;8.084;2022-10-14T10:51:13;4.85;;;2.20;;
66485;SDS011;53303;47.476;8.084;2022-10-14T10:56:30;35.55;;;3.83;;
66485;SDS011;53303;47.476;8.084;2022-10-14T11:11:31;178.73;;;16.77;;
66485;SDS011;53303;47.476;8.084;2022-10-14T11:30:19;95.93;;;9.63;;
66485;SDS011;53303;47.476;8.084;2022-10-14T11:35:36;96.25;;;10.48;;
66485;SDS011;53303;47.476;8.084;2022-10-14T11:46:13;171.95;;;15.90;;
66485;SDS011;53303;47.476;8.084;2022-10-14T11:48:53;111.68;;;11.23;;
66485;SDS011;53303;47.476;8.084;2022-10-14T11:51:23;61.50;;;6.38;;
66485;SDS011;53303;47.476;8.084;2022-10-14T12:10:25;39.80;;;5.97;;
66485;SDS011;53303;47.476;8.084;2022-10-14T12:12:54;22.60;;;4.15;;
66485;SDS011;53303;47.476;8.084;2022-10-14T12:15:22;16.95;;;3.25;;
66485;SDS011;53303;47.476;8.084;2022-10-14T12:17:58;19.02;;;2.92;;
66485;SDS011;53303;47.476;8.084;2022-10-14T12:23:26;14.75;;;3.10;;
66485;SDS011;53303;47.476;8.084;2022-10-14T12:25:57;17.65;;;3.10;;
66485;SDS011;53303;47.476;8.084;2022-10-14T12:28:28;12.82;;;2.55;;
66485;SDS011;53303;47.476;8.084;2022-10-14T12:36:38;10.88;;;2.67;;
66485;SDS011;53303;47.476;8.084;2022-10-14T12:39:39;12.52;;;3.17;;
66485;SDS011;53303;47.476;8.084;2022-10-14T12:42:02;10.52;;;2.53;;
66485;SDS011;53303;47.476;8.084;2022-10-14T12:46:58;8.20;;;2.20;;
66485;SDS011;53303;47.476;8.084;2022-10-14T12:49:31;9.43;;;2.22;;
66485;SDS011;53303;47.476;8.084;2022-10-14T12:52:03;8.90;;;2.17;;
66485;SDS011;53303;47.476;8.084;2022-10-14T12:54:34;6.78;;;2.60;;
66485;SDS011;53303;47.476;8.084;2022-10-14T12:57:03;7.25;;;2.15;;
66485;SDS011;53303;47.476;8.084;2022-10-14T12:59:41;6.80;;;2.05;;
66485;SDS011;53303;47.476;8.084;2022-10-14T13:02:17;8.93;;;2.30;;
66485;SDS011;53303;47.476;8.084;2022-10-14T13:04:48;6.45;;;1.83;;
66485;SDS011;53303;47.476;8.084;2022-10-14T13:09:43;10.27;;;1.83;;
66485;SDS011;53303;47.476;8.084;2022-10-14T13:20:46;9.25;;;2.35;;
66485;SDS011;53303;47.476;8.084;2022-10-14T13:23:21;6.30;;;2.00;;
66485;SDS011;53303;47.476;8.084;2022-10-14T13:40:04;7.32;;;2.15;;
66485;SDS011;53303;47.476;8.084;2022-10-14T13:45:31;5.90;;;1.50;;
66485;SDS011;53303;47.476;8.084;2022-10-14T13:48:02;4.78;;;1.67;;
66485;SDS011;53303;47.476;8.084;2022-10-14T13:50:32;6.68;;;1.58;;
66485;SDS011;53303;47.476;8.084;2022-10-14T13:53:05;5.32;;;1.70;;
66485;SDS011;53303;47.476;8.084;2022-10-14T13:55:42;7.03;;;2.00;;
66485;SDS011;53303;47.476;8.084;2022-10-14T14:03:35;5.75;;;1.85;;
66485;SDS011;53303;47.476;8.084;2022-10-14T14:06:11;5.25;;;2.10;;
66485;SDS011;53303;47.476;8.084;2022-10-14T14:08:45;5.90;;;1.45;;
66485;SDS011;53303;47.476;8.084;2022-10-14T14:11:20;6.05;;;1.73;;
66485;SDS011;53303;47.476;8.084;2022-10-14T14:16:46;4.18;;;1.65;;
66485;SDS011;53303;47.476;8.084;2022-10-14T14:19:16;5.55;;;1.58;;
66485;SDS011;53303;47.476;8.084;2022-10-14T14:21:46;4.75;;;1.80;;
66485;SDS011;53303;47.476;8.084;2022-10-14T14:24:29;5.18;;;1.75;;
66485;SDS011;53303;47.476;8.084;2022-10-14T14:26:58;6.35;;;1.70;;
66485;SDS011;53303;47.476;8.084;2022-10-14T14:29:25;4.32;;;1.75;;
66485;SDS011;53303;47.476;8.084;2022-10-14T14:31:56;3.67;;;1.58;;
66485;SDS011;53303;47.476;8.084;2022-10-14T14:34:22;4.82;;;1.67;;
66485;SDS011;53303;47.476;8.084;2022-10-14T14:36:51;4.60;;;1.63;;
66485;SDS011;53303;47.476;8.084;2022-10-14T14:39:21;3.38;;;1.38;;
66485;SDS011;53303;47.476;8.084;2022-10-14T14:41:52;4.05;;;1.85;;
66485;SDS011;53303;47.476;8.084;2022-10-14T14:44:26;4.43;;;1.38;;
66485;SDS011;53303;47.476;8.084;2022-10-14T14:46:55;12.27;;;1.85;;
66485;SDS011;53303;47.476;8.084;2022-10-14T14:49:31;7.53;;;1.70;;
66485;SDS011;53303;47.476;8.084;2022-10-14T14:51:59;5.38;;;1.80;;
66485;SDS011;53303;47.476;8.084;2022-10-14T14:54:26;4.13;;;1.42;;
66485;SDS011;53303;47.476;8.084;2022-10-14T15:01:54;5.57;;;1.50;;
66485;SDS011;53303;47.476;8.084;2022-10-14T15:04:23;7.43;;;2.10;;
66485;SDS011;53303;47.476;8.084;2022-10-14T15:07:11;13.15;;;1.95;;
66485;SDS011;53303;47.476;8.084;2022-10-14T15:09:41;5.65;;;1.55;;
66485;SDS011;53303;47.476;8.084;2022-10-14T15:19:47;7.80;;;1.73;;
66485;SDS011;53303;47.476;8.084;2022-10-14T15:24:57;5.18;;;1.52;;
66485;SDS011;53303;47.476;8.084;2022-10-14T15:28:26;4.68;;;1.30;;
66485;SDS011;53303;47.476;8.084;2022-10-14T15:32:56;4.40;;;1.20;;
66485;SDS011;53303;47.476;8.084;2022-10-14T15:35:26;4.18;;;1.40;;
66485;SDS011;53303;47.476;8.084;2022-10-14T15:37:53;6.10;;;2.15;;
66485;SDS011;53303;47.476;8.084;2022-10-14T15:40:19;5.13;;;1.42;;
66485;SDS011;53303;47.476;8.084;2022-10-14T15:42:53;4.60;;;1.80;;
66485;SDS011;53303;47.476;8.084;2022-10-14T15:45:19;4.40;;;1.30;;
66485;SDS011;53303;47.476;8.084;2022-10-14T15:47:45;4.28;;;1.23;;
66485;SDS011;53303;47.476;8.084;2022-10-14T15:50:18;5.13;;;1.90;;
66485;SDS011;53303;47.476;8.084;2022-10-14T15:52:45;5.97;;;1.85;;
66485;SDS011;53303;47.476;8.084;2022-10-14T15:55:21;5.22;;;1.88;;
66485;SDS011;53303;47.476;8.084;2022-10-14T15:57:59;4.82;;;1.77;;
66485;SDS011;53303;47.476;8.084;2022-10-14T16:00:29;8.73;;;2.20;;
66485;SDS011;53303;47.476;8.084;2022-10-14T16:02:56;6.15;;;2.10;;
66485;SDS011;53303;47.476;8.084;2022-10-14T16:05:27;8.52;;;1.88;;
66485;SDS011;53303;47.476;8.084;2022-10-14T16:07:55;6.05;;;1.60;;
66485;SDS011;53303;47.476;8.084;2022-10-14T16:10:21;6.25;;;1.77;;
66485;SDS011;53303;47.476;8.084;2022-10-14T16:12:48;5.55;;;1.52;;
66485;SDS011;53303;47.476;8.084;2022-10-14T16:15:21;11.77;;;3.55;;
66485;SDS011;53303;47.476;8.084;2022-10-14T16:17:52;9.15;;;2.60;;
66485;SDS011;53303;47.476;8.084;2022-10-14T16:20:18;10.00;;;2.90;;
66485;SDS011;53303;47.476;8.084;2022-10-14T16:22:44;9.52;;;2.63;;
66485;SDS011;53303;47.476;8.084;2022-10-14T16:25:13;6.87;;;2.57;;
66485;SDS011;53303;47.476;8.084;2022-10-14T16:27:46;5.03;;;1.85;;
66485;SDS011;53303;47.476;8.084;2022-10-14T16:30:11;6.38;;;2.22;;
66485;SDS011;53303;47.476;8.084;2022-10-14T16:32:37;6.68;;;3.10;;
66485;SDS011;53303;47.476;8.084;2022-10-14T16:35:02;5.53;;;1.90;;
66485;SDS011;53303;47.476;8.084;2022-10-14T16:37:28;6.07;;;2.28;;
66485;SDS011;53303;47.476;8.084;2022-10-14T16:39:53;5.28;;;2.00;;
66485;SDS011;53303;47.476;8.084;2022-10-14T16:42:19;5.18;;;2.10;;
66485;SDS011;53303;47.476;8.084;2022-10-14T16:44:44;4.95;;;2.22;;
66485;SDS011;53303;47.476;8.084;2022-10-14T16:47:09;4.10;;;2.00;;
66485;SDS011;53303;47.476;8.084;2022-10-14T16:49:44;4.57;;;2.10;;
66485;SDS011;53303;47.476;8.084;2022-10-14T16:52:12;5.22;;;2.22;;
66485;SDS011;53303;47.476;8.084;2022-10-14T16:54:38;5.38;;;2.47;;
66485;SDS011;53303;47.476;8.084;2022-10-14T16:57:03;5.28;;;1.85;;
66485;SDS011;53303;47.476;8.084;2022-10-14T16:59:29;3.83;;;1.52;;
66485;SDS011;53303;47.476;8.084;2022-10-14T17:01:56;5.13;;;2.20;;
66485;SDS011;53303;47.476;8.084;2022-10-14T17:04:21;4.60;;;1.73;;
66485;SDS011;53303;47.476;8.084;2022-10-14T17:06:49;4.63;;;1.67;;
66485;SDS011;53303;47.476;8.084;2022-10-14T17:09:20;4.57;;;1.77;;
66485;SDS011;53303;47.476;8.084;2022-10-14T17:11:45;5.38;;;1.83;;
66485;SDS011;53303;47.476;8.084;2022-10-14T17:14:12;5.60;;;1.90;;
66485;SDS011;53303;47.476;8.084;2022-10-14T17:16:40;3.92;;;1.90;;
66485;SDS011;53303;47.476;8.084;2022-10-14T17:19:06;4.55;;;1.52;;
66485;SDS011;53303;47.476;8.084;2022-10-14T17:21:31;3.97;;;1.52;;
66485;SDS011;53303;47.476;8.084;2022-10-14T17:23:58;3.90;;;1.48;;
66485;SDS011;53303;47.476;8.084;2022-10-14T17:26:27;3.45;;;1.60;;
66485;SDS011;53303;47.476;8.084;2022-10-14T17:28:54;5.68;;;1.75;;
66485;SDS011;53303;47.476;8.084;2022-10-14T17:31:23;3.70;;;1.52;;
66485;SDS011;53303;47.476;8.084;2022-10-14T17:33:52;6.82;;;1.80;;
66485;SDS011;53303;47.476;8.084;2022-10-14T17:36:22;6.10;;;1.70;;
66485;SDS011;53303;47.476;8.084;2022-10-14T17:38:52;3.45;;;1.40;;
66485;SDS011;53303;47.476;8.084;2022-10-14T17:41:19;2.83;;;1.30;;
66485;SDS011;53303;47.476;8.084;2022-10-14T17:43:47;3.28;;;1.40;;
66485;SDS011;53303;47.476;8.084;2022-10-14T17:46:14;5.65;;;1.80;;
66485;SDS011;53303;47.476;8.084;2022-10-14T17:48:42;3.88;;;1.63;;
66485;SDS011;53303;47.476;8.084;2022-10-14T17:51:12;4.97;;;1.80;;
66485;SDS011;53303;47.476;8.084;2022-10-14T17:53:37;4.50;;;2.10;;
66485;SDS011;53303;47.476;8.084;2022-10-14T17:56:07;3.05;;;1.58;;
66485;SDS011;53303;47.476;8.084;2022-10-14T17:58:34;3.55;;;1.70;;
66485;SDS011;53303;47.476;8.084;2022-10-14T18:01:07;2.75;;;1.40;;
66485;SDS011;53303;47.476;8.084;2022-10-14T18:03:41;5.68;;;1.80;;
66485;SDS011;53303;47.476;8.084;2022-10-14T18:06:12;4.07;;;1.50;;
66485;SDS011;53303;47.476;8.084;2022-10-14T18:08:40;4.10;;;1.50;;
66485;SDS011;53303;47.476;8.084;2022-10-14T18:11:08;3.22;;;1.48;;
66485;SDS011;53303;47.476;8.084;2022-10-14T18:13:35;3.20;;;1.27;;